Airfield :
LOGIN :

Register | Disclaimer

   EN    FR    IT 

 










Legend :    VFR   Marginal VFR   IFR   Intensive IFR   Very Intensive IFR
Visi :
Ceiling :
>= 8 km
>= 3000ft
5 to 8 km
1000 to 3000 ft
1500m to 5 km
500 to 1000 ft
800 to 1500m
200 to 500 ft
< 800m
< 200 ft
Symbols :   Thunderstorms  Fog  Heavy snow  Heavy precipitations  Wind > 20 kt
SIGMETs :     Misc.  Thunderstorms  Icing  Turbulence  Mountain Waves  Volcanic Ashes







- Airport Elevation : 17 ft
- IATA code : GRQ


EHGG - Groningen Eelde

CURRENT METAR :
  • 212225Z AUTO 10002KT 7000 NCD 10/10 Q1020

EXPIRED METARs :
  • 212155Z AUTO 12001KT 6000 NCD 10/10 Q1020
  • 212125Z AUTO 12001KT 7000 NSC 10/10 Q1020
  • 212055Z AUTO 11002KT 9999 NCD 10/10 Q1020 NOSIG
  • 212025Z AUTO 11003KT 9999 NCD 10/10 Q1019 NOSIG
  • 211955Z AUTO 12002KT 9999 NSC 11/11 Q1019 NOSIG

TAF TAF EHGG
Valid from the 21 at 18:00 until the 23 at 00:00 UTC


211704Z 2118/2224 15005KT CAVOK
BECMG 2121/2124 7000 MIFG
PROB30
TEMPO 2200/2207 0800 BCFG
BECMG 2207/2210 9999 FEW015
PROB40
TEMPO 2215/2220 6000 -RA -SHRA BKN010 FEW015CB
BECMG 2220/2223 4000 BR
No reported NOTAMs for that airfield.



MET'MAP, your aeronautical weather chart ! - Copyright ORBIFLY December 2007 - Disclaimer

ORBIFLY MET'MAP TEAM :

Programming & Development : Alexandra Zaïnal
Concept & Development : Baudouin d'Aumeries
Co-Development & Prog : Marc-Olivier Méhu
Technical & hardware support : Manuel Goepfert

Contact : metmap@orbifly.com




SOURCES & CREDITS :

   NOAA